sensor_id;sensor_type;location;lat;lon;timestamp;P1;P2;P0
23240;PMS7003;11789;53.482;9.862;2024-02-26T00:01:27;11.67;11.67;9.33
23240;PMS7003;11789;53.482;9.862;2024-02-26T00:03:58;14.67;14.67;10.33
23240;PMS7003;11789;53.482;9.862;2024-02-26T00:06:24;15.00;13.33;9.33
23240;PMS7003;11789;53.482;9.862;2024-02-26T00:08:50;14.33;14.33;10.33
23240;PMS7003;11789;53.482;9.862;2024-02-26T00:11:15;14.00;13.00;10.33
23240;PMS7003;11789;53.482;9.862;2024-02-26T00:13:41;14.00;12.33;9.00
23240;PMS7003;11789;53.482;9.862;2024-02-26T00:16:06;17.67;12.00;8.00
23240;PMS7003;11789;53.482;9.862;2024-02-26T00:18:32;14.67;14.00;9.00
23240;PMS7003;11789;53.482;9.862;2024-02-26T00:20:58;12.00;10.00;8.00
23240;PMS7003;11789;53.482;9.862;2024-02-26T00:23:23;9.67;9.67;7.00
23240;PMS7003;11789;53.482;9.862;2024-02-26T00:25:49;13.00;10.33;8.00
23240;PMS7003;11789;53.482;9.862;2024-02-26T00:28:15;14.00;13.00;9.00
23240;PMS7003;11789;53.482;9.862;2024-02-26T00:30:40;13.33;11.33;7.67
23240;PMS7003;11789;53.482;9.862;2024-02-26T00:33:06;12.00;12.00;8.67
23240;PMS7003;11789;53.482;9.862;2024-02-26T00:35:31;17.00;13.00;11.00
23240;PMS7003;11789;53.482;9.862;2024-02-26T00:37:56;8.00;8.00;7.00
23240;PMS7003;11789;53.482;9.862;2024-02-26T00:40:23;13.00;13.00;9.00
23240;PMS7003;11789;53.482;9.862;2024-02-26T00:42:49;12.00;9.67;7.67
23240;PMS7003;11789;53.482;9.862;2024-02-26T00:45:15;17.67;17.67;11.00
23240;PMS7003;11789;53.482;9.862;2024-02-26T00:47:41;13.67;9.67;8.00
23240;PMS7003;11789;53.482;9.862;2024-02-26T00:50:07;8.33;8.33;6.00
23240;PMS7003;11789;53.482;9.862;2024-02-26T00:52:34;9.00;9.00;8.00
23240;PMS7003;11789;53.482;9.862;2024-02-26T00:54:59;9.00;9.00;8.00
23240;PMS7003;11789;53.482;9.862;2024-02-26T00:57:26;12.00;8.00;7.33
23240;PMS7003;11789;53.482;9.862;2024-02-26T00:59:51;10.67;10.67;8.00
23240;PMS7003;11789;53.482;9.862;2024-02-26T01:02:17;12.33;11.00;7.00
23240;PMS7003;11789;53.482;9.862;2024-02-26T01:04:42;16.00;10.00;8.00
23240;PMS7003;11789;53.482;9.862;2024-02-26T01:07:08;10.33;10.33;7.00
23240;PMS7003;11789;53.482;9.862;2024-02-26T01:09:34;12.33;11.00;7.67
23240;PMS7003;11789;53.482;9.862;2024-02-26T01:11:59;13.00;9.00;8.00
23240;PMS7003;11789;53.482;9.862;2024-02-26T01:14:25;12.33;10.33;7.00
23240;PMS7003;11789;53.482;9.862;2024-02-26T01:16:50;11.67;9.33;6.33
23240;PMS7003;11789;53.482;9.862;2024-02-26T01:19:16;8.00;8.00;6.33
23240;PMS7003;11789;53.482;9.862;2024-02-26T01:21:41;13.00;11.00;7.67
23240;PMS7003;11789;53.482;9.862;2024-02-26T01:24:07;11.33;11.00;8.00
23240;PMS7003;11789;53.482;9.862;2024-02-26T01:26:32;11.00;11.00;7.00
23240;PMS7003;11789;53.482;9.862;2024-02-26T01:28:58;13.00;9.33;6.00
23240;PMS7003;11789;53.482;9.862;2024-02-26T01:31:23;8.33;8.33;7.00
23240;PMS7003;11789;53.482;9.862;2024-02-26T01:33:49;11.00;11.00;8.00
23240;PMS7003;11789;53.482;9.862;2024-02-26T01:36:14;9.33;9.33;8.00
23240;PMS7003;11789;53.482;9.862;2024-02-26T01:38:40;8.00;8.00;7.00
23240;PMS7003;11789;53.482;9.862;2024-02-26T01:41:05;17.67;17.67;11.00
23240;PMS7003;11789;53.482;9.862;2024-02-26T01:43:31;15.67;15.67;11.00
23240;PMS7003;11789;53.482;9.862;2024-02-26T01:45:57;12.00;12.00;9.33
23240;PMS7003;11789;53.482;9.862;2024-02-26T01:48:23;18.67;16.67;13.00
23240;PMS7003;11789;53.482;9.862;2024-02-26T01:50:48;13.00;13.00;9.00
23240;PMS7003;11789;53.482;9.862;2024-02-26T01:53:14;8.67;8.67;3.00
23240;PMS7003;11789;53.482;9.862;2024-02-26T01:55:41;13.33;13.33;11.00
23240;PMS7003;11789;53.482;9.862;2024-02-26T01:58:06;12.33;12.33;9.67
23240;PMS7003;11789;53.482;9.862;2024-02-26T02:00:32;11.00;11.00;7.00
23240;PMS7003;11789;53.482;9.862;2024-02-26T02:02:58;11.33;11.33;8.67
23240;PMS7003;11789;53.482;9.862;2024-02-26T02:05:23;11.00;11.00;7.00
23240;PMS7003;11789;53.482;9.862;2024-02-26T02:07:51;16.00;15.33;11.00
23240;PMS7003;11789;53.482;9.862;2024-02-26T02:10:17;10.33;10.33;7.00
23240;PMS7003;11789;53.482;9.862;2024-02-26T02:12:47;10.00;10.00;7.00
23240;PMS7003;11789;53.482;9.862;2024-02-26T02:15:13;13.67;12.67;9.33
23240;PMS7003;11789;53.482;9.862;2024-02-26T02:17:39;12.33;12.33;8.00
23240;PMS7003;11789;53.482;9.862;2024-02-26T02:20:07;13.33;11.67;9.00
23240;PMS7003;11789;53.482;9.862;2024-02-26T02:22:34;15.33;11.00;6.33
23240;PMS7003;11789;53.482;9.862;2024-02-26T02:24:59;14.67;14.67;10.33
23240;PMS7003;11789;53.482;9.862;2024-02-26T02:27:25;14.33;13.00;9.33
23240;PMS7003;11789;53.482;9.862;2024-02-26T02:29:51;9.00;8.00;6.67
23240;PMS7003;11789;53.482;9.862;2024-02-26T02:32:17;11.00;10.00;7.00
23240;PMS7003;11789;53.482;9.862;2024-02-26T02:34:44;11.00;11.00;7.00
23240;PMS7003;11789;53.482;9.862;2024-02-26T02:37:10;11.67;11.67;8.00
23240;PMS7003;11789;53.482;9.862;2024-02-26T02:39:36;12.33;12.33;7.67
23240;PMS7003;11789;53.482;9.862;2024-02-26T02:42:01;22.00;18.67;12.67
23240;PMS7003;11789;53.482;9.862;2024-02-26T02:44:27;15.00;13.00;8.00
23240;PMS7003;11789;53.482;9.862;2024-02-26T02:46:52;30.33;25.00;12.67
23240;PMS7003;11789;53.482;9.862;2024-02-26T02:49:18;14.00;12.00;8.00
23240;PMS7003;11789;53.482;9.862;2024-02-26T02:51:44;13.33;11.00;6.67
23240;PMS7003;11789;53.482;9.862;2024-02-26T02:54:09;11.00;9.33;7.00
23240;PMS7003;11789;53.482;9.862;2024-02-26T02:56:34;14.67;10.33;7.00
23240;PMS7003;11789;53.482;9.862;2024-02-26T02:59:00;11.33;9.67;7.00
23240;PMS7003;11789;53.482;9.862;2024-02-26T03:01:27;15.00;10.00;8.33
23240;PMS7003;11789;53.482;9.862;2024-02-26T03:03:52;15.67;15.67;12.00
23240;PMS7003;11789;53.482;9.862;2024-02-26T03:06:18;14.67;12.67;10.00
23240;PMS7003;11789;53.482;9.862;2024-02-26T03:08:43;19.33;18.33;13.00
23240;PMS7003;11789;53.482;9.862;2024-02-26T03:11:13;20.33;19.33;15.67
23240;PMS7003;11789;53.482;9.862;2024-02-26T03:13:39;22.33;21.00;12.67
23240;PMS7003;11789;53.482;9.862;2024-02-26T03:16:05;35.00;29.00;20.33
23240;PMS7003;11789;53.482;9.862;2024-02-26T03:18:31;20.00;16.00;10.00
23240;PMS7003;11789;53.482;9.862;2024-02-26T03:20:56;22.67;17.67;12.00
23240;PMS7003;11789;53.482;9.862;2024-02-26T03:23:21;29.67;24.67;16.00
23240;PMS7003;11789;53.482;9.862;2024-02-26T03:25:47;36.33;31.67;19.67
23240;PMS7003;11789;53.482;9.862;2024-02-26T03:28:13;31.67;26.33;16.00
23240;PMS7003;11789;53.482;9.862;2024-02-26T03:30:38;34.33;29.67;19.67
23240;PMS7003;11789;53.482;9.862;2024-02-26T03:33:04;37.00;35.00;21.33
23240;PMS7003;11789;53.482;9.862;2024-02-26T03:35:29;42.00;32.67;20.00
23240;PMS7003;11789;53.482;9.862;2024-02-26T03:37:55;32.67;29.67;20.67
23240;PMS7003;11789;53.482;9.862;2024-02-26T03:40:20;35.33;28.00;17.33
23240;PMS7003;11789;53.482;9.862;2024-02-26T03:42:46;29.00;27.00;16.67
23240;PMS7003;11789;53.482;9.862;2024-02-26T03:45:11;21.00;21.00;16.00
23240;PMS7003;11789;53.482;9.862;2024-02-26T03:47:39;23.33;20.67;15.00
23240;PMS7003;11789;53.482;9.862;2024-02-26T03:50:05;17.00;14.67;11.00
23240;PMS7003;11789;53.482;9.862;2024-02-26T03:52:32;16.33;14.33;9.67
23240;PMS7003;11789;53.482;9.862;2024-02-26T03:54:58;15.00;9.67;7.00
23240;PMS7003;11789;53.482;9.862;2024-02-26T03:57:23;16.67;16.67;11.00
23240;PMS7003;11789;53.482;9.862;2024-02-26T03:59:49;11.00;11.00;7.00
23240;PMS7003;11789;53.482;9.862;2024-02-26T04:02:14;16.33;14.00;10.00
23240;PMS7003;11789;53.482;9.862;2024-02-26T04:04:41;12.67;11.33;9.33
23240;PMS7003;11789;53.482;9.862;2024-02-26T04:07:07;15.33;15.00;9.67
23240;PMS7003;11789;53.482;9.862;2024-02-26T04:09:32;15.67;14.00;8.33
23240;PMS7003;11789;53.482;9.862;2024-02-26T04:11:58;15.00;12.33;7.33
23240;PMS7003;11789;53.482;9.862;2024-02-26T04:14:23;12.33;12.33;10.00
23240;PMS7003;11789;53.482;9.862;2024-02-26T04:16:49;14.33;14.33;10.33
23240;PMS7003;11789;53.482;9.862;2024-02-26T04:19:17;18.33;15.33;9.00
23240;PMS7003;11789;53.482;9.862;2024-02-26T04:21:42;13.33;13.33;8.00
23240;PMS7003;11789;53.482;9.862;2024-02-26T04:24:08;15.00;14.00;8.33
23240;PMS7003;11789;53.482;9.862;2024-02-26T04:26:34;12.67;11.00;9.00
23240;PMS7003;11789;53.482;9.862;2024-02-26T04:28:59;18.00;14.33;10.00
23240;PMS7003;11789;53.482;9.862;2024-02-26T04:31:25;17.67;15.00;10.00
23240;PMS7003;11789;53.482;9.862;2024-02-26T04:33:51;19.00;12.67;9.33
23240;PMS7003;11789;53.482;9.862;2024-02-26T04:36:17;15.67;15.00;10.67
23240;PMS7003;11789;53.482;9.862;2024-02-26T04:38:43;10.00;10.00;8.00
23240;PMS7003;11789;53.482;9.862;2024-02-26T04:41:08;19.33;17.33;11.00
23240;PMS7003;11789;53.482;9.862;2024-02-26T04:43:34;16.67;13.67;11.00
23240;PMS7003;11789;53.482;9.862;2024-02-26T04:45:59;14.33;14.00;9.67
23240;PMS7003;11789;53.482;9.862;2024-02-26T04:48:27;13.67;13.33;8.33
23240;PMS7003;11789;53.482;9.862;2024-02-26T04:50:52;15.00;12.00;8.33
23240;PMS7003;11789;53.482;9.862;2024-02-26T04:53:18;15.00;12.00;7.67
23240;PMS7003;11789;53.482;9.862;2024-02-26T04:55:43;11.33;11.33;7.67
23240;PMS7003;11789;53.482;9.862;2024-02-26T04:58:09;14.33;12.67;10.00
23240;PMS7003;11789;53.482;9.862;2024-02-26T05:00:35;15.67;11.67;8.33
23240;PMS7003;11789;53.482;9.862;2024-02-26T05:03:01;14.67;14.67;10.00
23240;PMS7003;11789;53.482;9.862;2024-02-26T05:05:26;15.67;14.33;10.33
23240;PMS7003;11789;53.482;9.862;2024-02-26T05:07:51;16.00;14.33;10.00
23240;PMS7003;11789;53.482;9.862;2024-02-26T05:10:17;14.00;14.00;10.00
23240;PMS7003;11789;53.482;9.862;2024-02-26T05:12:42;5.00;1.00;0.00
23240;PMS7003;11789;53.482;9.862;2024-02-26T05:15:08;14.00;12.67;8.33
23240;PMS7003;11789;53.482;9.862;2024-02-26T05:17:34;14.33;13.33;10.00
23240;PMS7003;11789;53.482;9.862;2024-02-26T05:20:00;18.67;16.00;10.00
23240;PMS7003;11789;53.482;9.862;2024-02-26T05:22:25;16.67;15.33;11.00
23240;PMS7003;11789;53.482;9.862;2024-02-26T05:24:51;19.33;16.33;12.00
23240;PMS7003;11789;53.482;9.862;2024-02-26T05:27:17;24.67;14.00;11.00
23240;PMS7003;11789;53.482;9.862;2024-02-26T05:29:42;14.33;14.33;10.00
23240;PMS7003;11789;53.482;9.862;2024-02-26T05:32:08;19.00;16.00;11.00
23240;PMS7003;11789;53.482;9.862;2024-02-26T05:34:33;20.00;20.00;12.00
23240;PMS7003;11789;53.482;9.862;2024-02-26T05:36:59;12.33;10.00;8.67
23240;PMS7003;11789;53.482;9.862;2024-02-26T05:39:24;13.67;13.67;9.33
23240;PMS7003;11789;53.482;9.862;2024-02-26T05:41:50;16.33;14.00;10.00
23240;PMS7003;11789;53.482;9.862;2024-02-26T05:44:15;13.33;13.33;10.67
23240;PMS7003;11789;53.482;9.862;2024-02-26T05:46:41;12.00;12.00;7.00
23240;PMS7003;11789;53.482;9.862;2024-02-26T05:49:07;16.67;15.00;10.00
23240;PMS7003;11789;53.482;9.862;2024-02-26T05:51:32;12.00;12.00;10.00
23240;PMS7003;11789;53.482;9.862;2024-02-26T05:53:58;14.00;14.00;9.33
23240;PMS7003;11789;53.482;9.862;2024-02-26T05:56:23;16.67;16.00;11.00
23240;PMS7003;11789;53.482;9.862;2024-02-26T05:58:49;14.33;11.00;8.00
23240;PMS7003;11789;53.482;9.862;2024-02-26T06:01:15;15.00;12.67;11.00
23240;PMS7003;11789;53.482;9.862;2024-02-26T06:03:41;16.67;14.67;10.00
23240;PMS7003;11789;53.482;9.862;2024-02-26T06:06:07;15.00;14.00;10.00
23240;PMS7003;11789;53.482;9.862;2024-02-26T06:08:33;19.33;15.00;9.67
23240;PMS7003;11789;53.482;9.862;2024-02-26T06:10:58;15.33;12.00;8.67
23240;PMS7003;11789;53.482;9.862;2024-02-26T06:13:24;14.67;14.67;10.00
23240;PMS7003;11789;53.482;9.862;2024-02-26T06:15:49;15.00;12.67;8.33
23240;PMS7003;11789;53.482;9.862;2024-02-26T06:18:14;12.67;12.67;8.33
23240;PMS7003;11789;53.482;9.862;2024-02-26T06:20:41;20.33;16.33;11.00
23240;PMS7003;11789;53.482;9.862;2024-02-26T06:23:06;18.00;16.00;11.00
23240;PMS7003;11789;53.482;9.862;2024-02-26T06:25:32;17.67;17.67;12.00
23240;PMS7003;11789;53.482;9.862;2024-02-26T06:27:57;30.33;27.67;16.67
23240;PMS7003;11789;53.482;9.862;2024-02-26T06:30:23;23.00;21.33;14.00
23240;PMS7003;11789;53.482;9.862;2024-02-26T06:32:48;36.33;29.00;19.00
23240;PMS7003;11789;53.482;9.862;2024-02-26T06:35:14;27.67;27.00;15.00
23240;PMS7003;11789;53.482;9.862;2024-02-26T06:37:39;33.33;29.67;19.00
23240;PMS7003;11789;53.482;9.862;2024-02-26T06:40:05;29.00;25.33;14.67
23240;PMS7003;11789;53.482;9.862;2024-02-26T06:42:34;29.67;26.00;17.33
23240;PMS7003;11789;53.482;9.862;2024-02-26T06:45:00;30.67;21.67;12.00
23240;PMS7003;11789;53.482;9.862;2024-02-26T06:47:26;20.67;18.33;12.33
23240;PMS7003;11789;53.482;9.862;2024-02-26T06:49:51;20.00;18.67;12.00
23240;PMS7003;11789;53.482;9.862;2024-02-26T06:52:17;25.00;21.00;14.00
23240;PMS7003;11789;53.482;9.862;2024-02-26T06:54:42;19.33;18.33;11.33
23240;PMS7003;11789;53.482;9.862;2024-02-26T06:57:08;21.00;19.67;12.00
23240;PMS7003;11789;53.482;9.862;2024-02-26T06:59:33;20.33;19.33;14.00
23240;PMS7003;11789;53.482;9.862;2024-02-26T07:01:58;19.67;16.00;10.33
23240;PMS7003;11789;53.482;9.862;2024-02-26T07:04:24;25.00;24.33;15.33
23240;PMS7003;11789;53.482;9.862;2024-02-26T07:06:49;16.00;16.00;11.00
23240;PMS7003;11789;53.482;9.862;2024-02-26T07:09:15;28.33;25.33;16.67
23240;PMS7003;11789;53.482;9.862;2024-02-26T07:11:41;24.00;20.00;15.00
23240;PMS7003;11789;53.482;9.862;2024-02-26T07:14:09;25.33;24.67;14.67
23240;PMS7003;11789;53.482;9.862;2024-02-26T07:16:35;24.00;20.33;12.67
23240;PMS7003;11789;53.482;9.862;2024-02-26T07:19:01;23.00;21.00;15.00
23240;PMS7003;11789;53.482;9.862;2024-02-26T07:21:27;26.00;19.00;12.00
23240;PMS7003;11789;53.482;9.862;2024-02-26T07:23:52;27.67;21.67;13.33
23240;PMS7003;11789;53.482;9.862;2024-02-26T07:26:18;24.33;21.00;13.33
23240;PMS7003;11789;53.482;9.862;2024-02-26T07:28:44;21.67;18.67;12.00
23240;PMS7003;11789;53.482;9.862;2024-02-26T07:31:10;23.00;20.33;15.67
23240;PMS7003;11789;53.482;9.862;2024-02-26T07:33:35;24.33;21.33;15.00
23240;PMS7003;11789;53.482;9.862;2024-02-26T07:36:01;26.67;21.00;14.33
23240;PMS7003;11789;53.482;9.862;2024-02-26T07:38:26;24.00;20.67;13.67
23240;PMS7003;11789;53.482;9.862;2024-02-26T07:40:51;34.67;27.00;16.67
23240;PMS7003;11789;53.482;9.862;2024-02-26T07:43:17;38.00;30.33;20.00
23240;PMS7003;11789;53.482;9.862;2024-02-26T07:45:42;35.00;28.67;20.00
23240;PMS7003;11789;53.482;9.862;2024-02-26T07:48:08;44.00;37.33;24.00
23240;PMS7003;11789;53.482;9.862;2024-02-26T07:50:33;47.00;39.00;27.00
23240;PMS7003;11789;53.482;9.862;2024-02-26T07:52:58;45.67;41.33;26.00
23240;PMS7003;11789;53.482;9.862;2024-02-26T07:55:24;48.67;39.00;25.00
23240;PMS7003;11789;53.482;9.862;2024-02-26T07:57:49;45.67;39.00;25.33
23240;PMS7003;11789;53.482;9.862;2024-02-26T08:00:15;42.67;38.67;24.00
23240;PMS7003;11789;53.482;9.862;2024-02-26T08:02:42;50.67;41.33;24.33
23240;PMS7003;11789;53.482;9.862;2024-02-26T08:05:08;49.00;40.00;25.33
23240;PMS7003;11789;53.482;9.862;2024-02-26T08:07:34;47.33;38.67;24.33
23240;PMS7003;11789;53.482;9.862;2024-02-26T08:09:59;38.00;31.00;22.67
23240;PMS7003;11789;53.482;9.862;2024-02-26T08:12:25;42.00;34.33;23.67
23240;PMS7003;11789;53.482;9.862;2024-02-26T08:14:50;43.00;37.00;21.00
23240;PMS7003;11789;53.482;9.862;2024-02-26T08:17:16;35.00;34.67;23.00
23240;PMS7003;11789;53.482;9.862;2024-02-26T08:19:41;35.00;34.67;22.00
23240;PMS7003;11789;53.482;9.862;2024-02-26T08:22:07;44.67;40.00;25.33
23240;PMS7003;11789;53.482;9.862;2024-02-26T08:24:33;37.67;37.00;22.67
23240;PMS7003;11789;53.482;9.862;2024-02-26T08:26:58;25.33;23.67;10.67
23240;PMS7003;11789;53.482;9.862;2024-02-26T08:29:23;40.67;37.00;22.00
23240;PMS7003;11789;53.482;9.862;2024-02-26T08:31:49;44.67;37.67;24.67
23240;PMS7003;11789;53.482;9.862;2024-02-26T08:34:15;44.67;38.00;24.00
23240;PMS7003;11789;53.482;9.862;2024-02-26T08:36:40;40.67;35.33;21.33
23240;PMS7003;11789;53.482;9.862;2024-02-26T08:39:08;42.00;39.00;27.00
23240;PMS7003;11789;53.482;9.862;2024-02-26T08:41:34;44.00;37.67;24.00
23240;PMS7003;11789;53.482;9.862;2024-02-26T08:43:59;46.33;40.00;24.67
23240;PMS7003;11789;53.482;9.862;2024-02-26T08:46:25;39.67;33.67;23.33
23240;PMS7003;11789;53.482;9.862;2024-02-26T08:48:50;53.00;46.33;30.00
23240;PMS7003;11789;53.482;9.862;2024-02-26T08:51:15;54.33;44.67;28.67
23240;PMS7003;11789;53.482;9.862;2024-02-26T08:53:41;55.67;42.67;27.67
23240;PMS7003;11789;53.482;9.862;2024-02-26T08:56:07;50.00;37.67;26.33
23240;PMS7003;11789;53.482;9.862;2024-02-26T08:58:32;45.67;39.33;25.33
23240;PMS7003;11789;53.482;9.862;2024-02-26T09:00:58;42.67;38.67;26.00
23240;PMS7003;11789;53.482;9.862;2024-02-26T09:03:23;51.67;39.33;24.00
23240;PMS7003;11789;53.482;9.862;2024-02-26T09:05:49;40.67;37.00;24.00
23240;PMS7003;11789;53.482;9.862;2024-02-26T09:08:14;39.00;36.00;24.00
23240;PMS7003;11789;53.482;9.862;2024-02-26T09:10:40;41.00;38.00;24.00
23240;PMS7003;11789;53.482;9.862;2024-02-26T09:13:05;44.00;38.67;25.33
23240;PMS7003;11789;53.482;9.862;2024-02-26T09:15:31;44.67;38.00;23.33
23240;PMS7003;11789;53.482;9.862;2024-02-26T09:17:56;50.33;40.00;26.00
23240;PMS7003;11789;53.482;9.862;2024-02-26T09:20:22;42.67;36.00;23.33
23240;PMS7003;11789;53.482;9.862;2024-02-26T09:22:48;43.67;40.33;26.00
23240;PMS7003;11789;53.482;9.862;2024-02-26T09:25:15;52.00;41.00;24.33
23240;PMS7003;11789;53.482;9.862;2024-02-26T09:27:44;38.33;37.00;22.33
23240;PMS7003;11789;53.482;9.862;2024-02-26T09:30:10;37.67;36.33;25.67
23240;PMS7003;11789;53.482;9.862;2024-02-26T09:32:37;29.00;27.33;17.33
23240;PMS7003;11789;53.482;9.862;2024-02-26T09:35:02;41.00;35.33;22.67
23240;PMS7003;11789;53.482;9.862;2024-02-26T09:37:28;38.33;34.00;22.67
23240;PMS7003;11789;53.482;9.862;2024-02-26T09:39:53;48.67;38.33;23.67
23240;PMS7003;11789;53.482;9.862;2024-02-26T09:42:19;40.33;35.33;20.67
23240;PMS7003;11789;53.482;9.862;2024-02-26T09:44:45;41.00;34.00;23.00
23240;PMS7003;11789;53.482;9.862;2024-02-26T09:47:14;32.00;28.67;18.33
23240;PMS7003;11789;53.482;9.862;2024-02-26T09:49:42;29.00;29.00;20.00
23240;PMS7003;11789;53.482;9.862;2024-02-26T09:52:08;29.33;28.00;17.33
23240;PMS7003;11789;53.482;9.862;2024-02-26T09:54:35;40.67;33.67;21.67
23240;PMS7003;11789;53.482;9.862;2024-02-26T09:57:02;35.00;30.67;20.67
23240;PMS7003;11789;53.482;9.862;2024-02-26T09:59:37;37.00;31.67;19.67
23240;PMS7003;11789;53.482;9.862;2024-02-26T10:02:13;34.00;29.67;20.67
23240;PMS7003;11789;53.482;9.862;2024-02-26T10:04:40;39.00;35.33;22.33
23240;PMS7003;11789;53.482;9.862;2024-02-26T10:07:11;41.67;35.33;22.00
23240;PMS7003;11789;53.482;9.862;2024-02-26T10:09:37;38.67;30.67;21.67
23240;PMS7003;11789;53.482;9.862;2024-02-26T10:12:03;35.67;34.33;20.33
23240;PMS7003;11789;53.482;9.862;2024-02-26T10:14:30;33.67;28.67;19.33
23240;PMS7003;11789;53.482;9.862;2024-02-26T10:16:56;39.67;35.00;23.00
23240;PMS7003;11789;53.482;9.862;2024-02-26T10:19:29;35.00;29.67;20.33
23240;PMS7003;11789;53.482;9.862;2024-02-26T10:21:59;34.00;28.00;20.33
23240;PMS7003;11789;53.482;9.862;2024-02-26T10:24:26;34.00;28.00;19.33
23240;PMS7003;11789;53.482;9.862;2024-02-26T10:26:53;38.33;31.33;20.00
23240;PMS7003;11789;53.482;9.862;2024-02-26T10:29:20;29.33;27.67;19.33
23240;PMS7003;11789;53.482;9.862;2024-02-26T10:31:46;41.67;33.00;19.33
23240;PMS7003;11789;53.482;9.862;2024-02-26T10:34:12;43.67;35.33;23.00
23240;PMS7003;11789;53.482;9.862;2024-02-26T10:36:39;34.33;34.33;19.67
23240;PMS7003;11789;53.482;9.862;2024-02-26T10:39:08;33.33;31.67;21.00
23240;PMS7003;11789;53.482;9.862;2024-02-26T10:41:34;37.00;34.33;23.00
23240;PMS7003;11789;53.482;9.862;2024-02-26T10:44:00;33.00;30.00;23.00
23240;PMS7003;11789;53.482;9.862;2024-02-26T10:46:26;33.67;31.67;20.67
23240;PMS7003;11789;53.482;9.862;2024-02-26T10:48:52;31.67;29.67;20.33
23240;PMS7003;11789;53.482;9.862;2024-02-26T10:51:28;38.00;36.00;22.33
23240;PMS7003;11789;53.482;9.862;2024-02-26T10:53:56;36.33;32.00;19.67
23240;PMS7003;11789;53.482;9.862;2024-02-26T10:56:27;50.00;37.00;22.33
23240;PMS7003;11789;53.482;9.862;2024-02-26T10:58:57;39.33;35.33;21.33
23240;PMS7003;11789;53.482;9.862;2024-02-26T11:01:23;32.67;30.00;19.00
23240;PMS7003;11789;53.482;9.862;2024-02-26T11:03:51;37.33;33.00;20.00
23240;PMS7003;11789;53.482;9.862;2024-02-26T11:06:17;32.67;29.67;18.00
23240;PMS7003;11789;53.482;9.862;2024-02-26T11:08:47;36.67;28.33;19.00
23240;PMS7003;11789;53.482;9.862;2024-02-26T11:11:13;35.00;30.67;20.33
23240;PMS7003;11789;53.482;9.862;2024-02-26T11:13:40;40.00;34.00;20.00
23240;PMS7003;11789;53.482;9.862;2024-02-26T11:16:11;39.33;34.00;19.00
23240;PMS7003;11789;53.482;9.862;2024-02-26T11:18:37;38.00;31.00;18.67
23240;PMS7003;11789;53.482;9.862;2024-02-26T11:21:06;37.00;32.00;20.00
23240;PMS7003;11789;53.482;9.862;2024-02-26T11:23:33;39.67;36.67;21.00
23240;PMS7003;11789;53.482;9.862;2024-02-26T11:26:01;32.00;29.00;20.33
23240;PMS7003;11789;53.482;9.862;2024-02-26T11:28:29;37.33;34.00;21.67
23240;PMS7003;11789;53.482;9.862;2024-02-26T11:30:57;35.25;30.25;19.00
23240;PMS7003;11789;53.482;9.862;2024-02-26T11:33:25;31.25;30.00;20.00
23240;PMS7003;11789;53.482;9.862;2024-02-26T11:35:53;42.00;32.33;21.00
23240;PMS7003;11789;53.482;9.862;2024-02-26T11:38:22;40.00;34.00;21.33
23240;PMS7003;11789;53.482;9.862;2024-02-26T11:40:49;37.25;32.75;20.25
23240;PMS7003;11789;53.482;9.862;2024-02-26T11:43:15;36.75;34.25;19.25
23240;PMS7003;11789;53.482;9.862;2024-02-26T11:48:14;33.33;28.33;17.00
23240;PMS7003;11789;53.482;9.862;2024-02-26T11:50:43;36.00;34.00;21.00
23240;PMS7003;11789;53.482;9.862;2024-02-26T11:53:22;28.25;26.00;16.25
23240;PMS7003;11789;53.482;9.862;2024-02-26T11:56:11;32.00;32.00;18.67
23240;PMS7003;11789;53.482;9.862;2024-02-26T12:02:02;37.67;31.00;19.00
23240;PMS7003;11789;53.482;9.862;2024-02-26T12:04:29;36.00;34.00;21.67
23240;PMS7003;11789;53.482;9.862;2024-02-26T12:09:35;38.33;33.33;20.00
23240;PMS7003;11789;53.482;9.862;2024-02-26T12:12:06;30.00;29.25;19.50
23240;PMS7003;11789;53.482;9.862;2024-02-26T12:14:34;34.33;33.00;18.67
23240;PMS7003;11789;53.482;9.862;2024-02-26T12:17:03;38.75;33.00;19.00
23240;PMS7003;11789;53.482;9.862;2024-02-26T12:19:32;35.00;30.25;18.00
23240;PMS7003;11789;53.482;9.862;2024-02-26T12:21:59;32.67;31.00;19.00
23240;PMS7003;11789;53.482;9.862;2024-02-26T12:24:25;30.25;27.75;18.25
23240;PMS7003;11789;53.482;9.862;2024-02-26T12:26:50;29.25;26.25;17.00
23240;PMS7003;11789;53.482;9.862;2024-02-26T12:29:15;32.25;29.00;19.00
23240;PMS7003;11789;53.482;9.862;2024-02-26T12:31:41;41.00;29.00;19.00
23240;PMS7003;11789;53.482;9.862;2024-02-26T12:34:07;32.25;29.50;19.50
23240;PMS7003;11789;53.482;9.862;2024-02-26T12:36:34;34.25;31.50;18.50
23240;PMS7003;11789;53.482;9.862;2024-02-26T12:39:04;31.25;31.00;20.00
23240;PMS7003;11789;53.482;9.862;2024-02-26T12:41:35;27.75;26.00;16.00
23240;PMS7003;11789;53.482;9.862;2024-02-26T12:44:03;34.50;29.25;18.50
23240;PMS7003;11789;53.482;9.862;2024-02-26T12:46:32;31.50;28.00;16.50
23240;PMS7003;11789;53.482;9.862;2024-02-26T12:48:58;37.25;30.00;20.00
23240;PMS7003;11789;53.482;9.862;2024-02-26T12:51:25;30.75;27.00;15.25
23240;PMS7003;11789;53.482;9.862;2024-02-26T12:53:51;28.75;24.00;15.50
23240;PMS7003;11789;53.482;9.862;2024-02-26T12:56:18;31.00;26.50;15.50
23240;PMS7003;11789;53.482;9.862;2024-02-26T12:58:44;33.00;30.50;20.00
23240;PMS7003;11789;53.482;9.862;2024-02-26T13:01:16;35.25;32.75;18.25
23240;PMS7003;11789;53.482;9.862;2024-02-26T13:03:45;37.25;30.50;19.00
23240;PMS7003;11789;53.482;9.862;2024-02-26T13:06:11;26.75;23.50;15.50
23240;PMS7003;11789;53.482;9.862;2024-02-26T13:08:37;34.25;27.50;15.25
23240;PMS7003;11789;53.482;9.862;2024-02-26T13:11:02;22.00;22.00;14.25
23240;PMS7003;11789;53.482;9.862;2024-02-26T13:13:28;23.50;23.50;13.75
23240;PMS7003;11789;53.482;9.862;2024-02-26T13:16:10;32.00;29.75;17.25
23240;PMS7003;11789;53.482;9.862;2024-02-26T13:18:39;25.00;24.25;14.00
23240;PMS7003;11789;53.482;9.862;2024-02-26T13:21:14;24.25;22.75;15.75
23240;PMS7003;11789;53.482;9.862;2024-02-26T13:23:41;30.25;29.75;18.00
23240;PMS7003;11789;53.482;9.862;2024-02-26T13:26:08;32.25;31.50;20.75
23240;PMS7003;11789;53.482;9.862;2024-02-26T13:28:36;30.75;30.75;18.50
23240;PMS7003;11789;53.482;9.862;2024-02-26T13:31:02;37.00;30.50;21.00
23240;PMS7003;11789;53.482;9.862;2024-02-26T13:33:29;40.50;34.00;21.00
23240;PMS7003;11789;53.482;9.862;2024-02-26T13:35:56;32.75;28.50;20.75
23240;PMS7003;11789;53.482;9.862;2024-02-26T13:38:22;31.25;31.25;19.50
23240;PMS7003;11789;53.482;9.862;2024-02-26T13:40:49;33.25;30.00;17.75
23240;PMS7003;11789;53.482;9.862;2024-02-26T13:43:15;31.75;31.75;20.00
23240;PMS7003;11789;53.482;9.862;2024-02-26T13:45:40;38.75;32.50;20.00
23240;PMS7003;11789;53.482;9.862;2024-02-26T13:48:06;33.00;32.50;21.75
23240;PMS7003;11789;53.482;9.862;2024-02-26T13:50:35;29.25;26.00;18.25
23240;PMS7003;11789;53.482;9.862;2024-02-26T13:53:00;32.75;28.50;20.75